Time;durP1;ratioP1;P1;durP2;ratioP2;P2;SDS_P1;SDS_P2;PMS_P1;PMS_P2;Temp;Humidity;BMP_temperature;BMP_pressure;BME280_temperature;BME280_humidity;BME280_pressure;Samples;Min_cycle;Max_cycle;Signal;HPM_P1;HPM_P2
2023/12/30 00:00:55;;;;;;;45.05;42.75;;;;;;;;;;5028684;28;20041;-67
2023/12/30 00:03:21;;;;;;;46.13;43.75;;;;;;;;;;5029272;28;20028;-67
2023/12/30 00:05:46;;;;;;;47.33;44.72;;;;;;;;;;5025720;28;20036;-68
2023/12/30 00:08:11;;;;;;;45.72;43.38;;;;;;;;;;5027062;28;20041;-68
2023/12/30 00:10:37;;;;;;;47.10;44.67;;;;;;;;;;5030146;28;20025;-68
2023/12/30 00:13:02;;;;;;;43.92;41.63;;;;;;;;;;5029382;28;20063;-67
2023/12/30 00:15:28;;;;;;;43.75;41.53;;;;;;;;;;5025490;28;20099;-67
2023/12/30 00:17:53;;;;;;;42.65;40.45;;;;;;;;;;5029044;28;20030;-67
2023/12/30 00:20:19;;;;;;;41.97;39.80;;;;;;;;;;5024793;28;20047;-67
2023/12/30 00:22:45;;;;;;;40.38;38.28;;;;;;;;;;5024550;28;20040;-67
2023/12/30 00:25:10;;;;;;;42.85;40.65;;;;;;;;;;5023916;28;20049;-67
2023/12/30 00:27:36;;;;;;;40.35;38.30;;;;;;;;;;5023889;28;20032;-67
2023/12/30 00:30:03;;;;;;;44.75;42.40;;;;;;;;;;5028726;28;20090;-67
2023/12/30 00:32:28;;;;;;;40.45;38.40;;;;;;;;;;5021594;28;20033;-67
2023/12/30 00:34:53;;;;;;;39.30;37.28;;;;;;;;;;5030151;28;20033;-67
2023/12/30 00:37:20;;;;;;;42.00;39.65;;;;;;;;;;5027796;28;20162;-67
2023/12/30 00:39:45;;;;;;;38.03;36.08;;;;;;;;;;5028790;28;20060;-67
2023/12/30 00:42:11;;;;;;;39.95;37.92;;;;;;;;;;5027010;28;20471;-67
2023/12/30 00:44:36;;;;;;;37.80;35.85;;;;;;;;;;5020916;28;20030;-67
2023/12/30 00:47:01;;;;;;;38.42;36.42;;;;;;;;;;5023822;28;20025;-67
2023/12/30 00:49:27;;;;;;;36.33;34.45;;;;;;;;;;5027913;28;20528;-67
2023/12/30 00:51:52;;;;;;;37.60;35.65;;;;;;;;;;5024647;28;20584;-67
2023/12/30 00:54:17;;;;;;;37.67;35.58;;;;;;;;;;5027808;28;20034;-67
2023/12/30 00:56:43;;;;;;;34.80;33.03;;;;;;;;;;5026113;28;20096;-67
2023/12/30 00:59:08;;;;;;;37.85;35.92;;;;;;;;;;5027996;28;20033;-67
2023/12/30 01:01:33;;;;;;;36.70;34.80;;;;;;;;;;5025342;28;20040;-67
2023/12/30 01:03:59;;;;;;;39.13;37.15;;;;;;;;;;5024222;28;20053;-67
2023/12/30 01:06:24;;;;;;;38.40;36.30;;;;;;;;;;5030105;28;20370;-66
2023/12/30 01:08:50;;;;;;;34.33;32.55;;;;;;;;;;5029007;28;20044;-66
2023/12/30 01:11:15;;;;;;;34.03;32.28;;;;;;;;;;5025711;28;20035;-67
2023/12/30 01:13:41;;;;;;;34.70;32.90;;;;;;;;;;5023269;28;20103;-67
2023/12/30 01:16:06;;;;;;;33.38;31.65;;;;;;;;;;5024623;28;20644;-67
2023/12/30 01:18:32;;;;;;;33.97;32.25;;;;;;;;;;5036199;28;20032;-67
2023/12/30 01:20:57;;;;;;;35.03;32.42;;;;;;;;;;5028944;28;21213;-66
2023/12/30 01:23:23;;;;;;;33.00;31.20;;;;;;;;;;5022541;28;20037;-66
2023/12/30 01:25:48;;;;;;;34.47;32.67;;;;;;;;;;5023674;28;20058;-66
2023/12/30 01:28:14;;;;;;;34.10;32.30;;;;;;;;;;5029998;28;20045;-66
2023/12/30 01:30:40;;;;;;;34.85;33.05;;;;;;;;;;5027513;28;20094;-66
2023/12/30 01:33:05;;;;;;;35.03;33.03;;;;;;;;;;5030827;28;20041;-66
2023/12/30 01:35:32;;;;;;;31.65;30.02;;;;;;;;;;5030650;28;20117;-66
2023/12/30 01:37:57;;;;;;;32.85;31.15;;;;;;;;;;5028647;28;20041;-67
2023/12/30 01:40:25;;;;;;;32.95;31.25;;;;;;;;;;5031587;28;20033;-66
2023/12/30 01:42:50;;;;;;;31.55;29.95;;;;;;;;;;5029923;28;20032;-66
2023/12/30 01:45:16;;;;;;;30.88;29.27;;;;;;;;;;5030010;28;20049;-67
2023/12/30 01:47:42;;;;;;;30.77;29.17;;;;;;;;;;5029947;28;20048;-66
2023/12/30 01:50:09;;;;;;;30.92;29.33;;;;;;;;;;5031519;28;20027;-67
2023/12/30 01:52:35;;;;;;;33.75;31.95;;;;;;;;;;5032765;28;20072;-66
2023/12/30 01:55:07;;;;;;;29.95;28.25;;;;;;;;;;5031849;28;20459;-67
2023/12/30 01:57:33;;;;;;;31.52;29.88;;;;;;;;;;5034204;28;20037;-67
2023/12/30 02:00:01;;;;;;;29.58;28.02;;;;;;;;;;5030535;28;20451;-67
2023/12/30 02:02:27;;;;;;;33.08;27.98;;;;;;;;;;5027510;28;20061;-67
2023/12/30 02:04:54;;;;;;;28.92;27.42;;;;;;;;;;5032088;28;20037;-66
2023/12/30 02:07:19;;;;;;;29.05;27.55;;;;;;;;;;5028304;28;20068;-67
2023/12/30 02:09:45;;;;;;;28.15;26.70;;;;;;;;;;5027300;28;20072;-67
2023/12/30 02:12:11;;;;;;;28.35;26.85;;;;;;;;;;5029160;28;20366;-66
2023/12/30 02:14:36;;;;;;;28.80;27.30;;;;;;;;;;5030801;28;20036;-66
2023/12/30 02:17:02;;;;;;;28.30;26.80;;;;;;;;;;5027969;28;20101;-67
2023/12/30 02:19:27;;;;;;;29.73;28.10;;;;;;;;;;5034767;28;20138;-67
2023/12/30 02:21:53;;;;;;;28.70;27.20;;;;;;;;;;5028953;28;20037;-67
2023/12/30 02:24:20;;;;;;;27.60;26.17;;;;;;;;;;5035126;28;20432;-67
2023/12/30 02:26:45;;;;;;;27.73;26.27;;;;;;;;;;5030537;28;20033;-67
2023/12/30 02:29:11;;;;;;;31.02;29.30;;;;;;;;;;5028415;28;20045;-66
2023/12/30 02:31:45;;;;;;;29.20;27.67;;;;;;;;;;5030205;28;20037;-66
2023/12/30 02:34:12;;;;;;;29.67;28.13;;;;;;;;;;5027876;28;20037;-66
2023/12/30 02:36:37;;;;;;;28.20;26.70;;;;;;;;;;5026955;28;20075;-66
2023/12/30 02:39:02;;;;;;;28.80;27.30;;;;;;;;;;5030125;28;20130;-66
2023/12/30 02:41:28;;;;;;;28.38;26.88;;;;;;;;;;5031160;28;20045;-67
2023/12/30 02:44:03;;;;;;;28.48;26.90;;;;;;;;;;5028557;28;20026;-67
2023/12/30 02:46:29;;;;;;;29.17;27.67;;;;;;;;;;5030840;28;20175;-67
2023/12/30 02:48:54;;;;;;;29.92;28.33;;;;;;;;;;5030783;28;20120;-69
2023/12/30 02:51:20;;;;;;;29.67;28.15;;;;;;;;;;5025688;28;20455;-67
2023/12/30 02:53:45;;;;;;;32.72;31.02;;;;;;;;;;5030380;28;20626;-67
2023/12/30 02:56:18;;;;;;;32.80;31.10;;;;;;;;;;5027407;28;20028;-67
2023/12/30 02:58:44;;;;;;;33.85;32.05;;;;;;;;;;5028647;28;20052;-67
2023/12/30 03:01:09;;;;;;;33.10;31.40;;;;;;;;;;5028675;28;20037;-67
2023/12/30 03:03:34;;;;;;;34.30;32.38;;;;;;;;;;5027452;28;20026;-67
2023/12/30 03:06:00;;;;;;;33.78;32.05;;;;;;;;;;5025738;28;20529;-67
2023/12/30 03:08:25;;;;;;;37.20;35.30;;;;;;;;;;5027351;28;20083;-67
2023/12/30 03:10:50;;;;;;;36.53;34.65;;;;;;;;;;5034357;28;20491;-67
2023/12/30 03:13:16;;;;;;;39.33;37.30;;;;;;;;;;5029754;28;20042;-67
2023/12/30 03:15:41;;;;;;;39.05;36.85;;;;;;;;;;5025880;28;20048;-67
2023/12/30 03:18:07;;;;;;;39.15;36.95;;;;;;;;;;5033291;28;20124;-67
2023/12/30 03:20:32;;;;;;;40.67;38.63;;;;;;;;;;5026825;28;20041;-67
2023/12/30 03:22:57;;;;;;;40.05;37.88;;;;;;;;;;5029135;28;20178;-67
2023/12/30 03:25:23;;;;;;;46.83;44.42;;;;;;;;;;5029997;28;20473;-67
2023/12/30 03:27:48;;;;;;;42.17;40.03;;;;;;;;;;5032207;28;20033;-67
2023/12/30 03:30:13;;;;;;;44.60;42.20;;;;;;;;;;5031068;28;20056;-68
2023/12/30 03:32:39;;;;;;;42.30;40.15;;;;;;;;;;5026147;28;20033;-68
2023/12/30 03:35:05;;;;;;;45.28;42.97;;;;;;;;;;5026238;28;20026;-67
2023/12/30 03:37:30;;;;;;;44.25;41.88;;;;;;;;;;5027000;28;20033;-67
2023/12/30 03:39:56;;;;;;;43.83;41.63;;;;;;;;;;5029873;28;20033;-67
2023/12/30 03:42:21;;;;;;;43.15;40.95;;;;;;;;;;5027718;28;20041;-67
2023/12/30 03:44:47;;;;;;;44.33;42.10;;;;;;;;;;5023956;28;20152;-67
2023/12/30 03:47:12;;;;;;;43.58;41.05;;;;;;;;;;5029837;28;20037;-67
2023/12/30 03:49:37;;;;;;;42.33;40.17;;;;;;;;;;5026077;28;20048;-67
2023/12/30 03:52:04;;;;;;;44.58;42.28;;;;;;;;;;5029015;28;20629;-67
2023/12/30 03:54:29;;;;;;;43.17;40.97;;;;;;;;;;5028768;28;20596;-67
2023/12/30 03:56:55;;;;;;;42.00;39.80;;;;;;;;;;5023445;28;20037;-67
2023/12/30 03:59:20;;;;;;;45.25;42.95;;;;;;;;;;5027717;28;20032;-67
2023/12/30 04:01:46;;;;;;;40.38;38.30;;;;;;;;;;5021863;28;20041;-67
2023/12/30 04:04:11;;;;;;;42.13;40.00;;;;;;;;;;5026189;28;20034;-67
2023/12/30 04:06:36;;;;;;;40.60;38.55;;;;;;;;;;5027741;28;20379;-67
2023/12/30 04:09:02;;;;;;;41.47;39.35;;;;;;;;;;5028808;28;20442;-67
2023/12/30 04:11:28;;;;;;;41.72;39.53;;;;;;;;;;5028996;28;20029;-67
2023/12/30 04:13:53;;;;;;;40.60;38.50;;;;;;;;;;5026525;28;20033;-67
2023/12/30 04:16:18;;;;;;;41.20;39.10;;;;;;;;;;5025084;28;20044;-67
2023/12/30 04:18:44;;;;;;;39.70;37.42;;;;;;;;;;5031323;28;20048;-67
2023/12/30 04:21:09;;;;;;;41.28;39.00;;;;;;;;;;5027873;28;20041;-67
2023/12/30 04:23:34;;;;;;;40.80;38.70;;;;;;;;;;5028494;28;20048;-67
2023/12/30 04:26:00;;;;;;;39.60;37.60;;;;;;;;;;5026545;28;20082;-67
2023/12/30 04:28:25;;;;;;;40.83;38.72;;;;;;;;;;5025646;28;20056;-67
2023/12/30 04:30:50;;;;;;;36.35;34.50;;;;;;;;;;5028843;28;20659;-67
2023/12/30 04:33:16;;;;;;;39.17;37.15;;;;;;;;;;5030033;28;20108;-67
2023/12/30 04:35:41;;;;;;;35.00;33.20;;;;;;;;;;5031143;28;20890;-67
2023/12/30 04:38:06;;;;;;;36.03;33.80;;;;;;;;;;5027315;28;20065;-67
2023/12/30 04:40:32;;;;;;;37.22;35.33;;;;;;;;;;5030523;28;20038;-67
2023/12/30 04:42:57;;;;;;;36.65;34.75;;;;;;;;;;5028244;28;20025;-68
2023/12/30 04:45:22;;;;;;;34.58;32.75;;;;;;;;;;5028076;28;20033;-67
2023/12/30 04:47:48;;;;;;;35.15;33.35;;;;;;;;;;5026198;28;20247;-67
2023/12/30 04:50:13;;;;;;;37.05;35.13;;;;;;;;;;5021625;28;20053;-68
2023/12/30 04:52:38;;;;;;;34.30;32.53;;;;;;;;;;5026685;28;20064;-59
2023/12/30 04:55:04;;;;;;;34.47;32.67;;;;;;;;;;5025045;28;20144;-58
2023/12/30 04:57:30;;;;;;;35.88;34.00;;;;;;;;;;5025428;28;20351;-58
2023/12/30 04:59:55;;;;;;;34.47;32.67;;;;;;;;;;5027730;28;20041;-59
2023/12/30 05:02:20;;;;;;;34.22;32.42;;;;;;;;;;5033288;28;20091;-59
2023/12/30 05:04:46;;;;;;;35.38;33.53;;;;;;;;;;5030151;28;20044;-59
2023/12/30 05:07:11;;;;;;;34.90;33.10;;;;;;;;;;5031553;28;20041;-59
2023/12/30 05:09:36;;;;;;;34.22;32.42;;;;;;;;;;5026453;28;20482;-59
2023/12/30 05:12:01;;;;;;;34.30;32.55;;;;;;;;;;5032093;28;20037;-59
2023/12/30 05:14:27;;;;;;;34.85;33.05;;;;;;;;;;5030044;28;20075;-60
2023/12/30 05:16:53;;;;;;;35.08;33.20;;;;;;;;;;5035350;28;20611;-67
2023/12/30 05:19:19;;;;;;;35.38;33.38;;;;;;;;;;5031221;28;20040;-67
2023/12/30 05:21:49;;;;;;;34.92;33.10;;;;;;;;;;5029214;28;20110;-67
2023/12/30 05:24:15;;;;;;;35.08;33.28;;;;;;;;;;5031186;28;20056;-68
2023/12/30 05:26:40;;;;;;;36.78;34.88;;;;;;;;;;5034988;28;20032;-67
2023/12/30 05:29:05;;;;;;;37.08;35.17;;;;;;;;;;5031915;28;20061;-68
2023/12/30 05:31:31;;;;;;;37.30;35.40;;;;;;;;;;5027091;28;20091;-67
2023/12/30 05:33:56;;;;;;;39.25;37.25;;;;;;;;;;5026438;28;21003;-67
2023/12/30 05:36:21;;;;;;;39.22;37.22;;;;;;;;;;5029690;28;20033;-67
2023/12/30 05:38:47;;;;;;;38.47;36.15;;;;;;;;;;5025882;28;20108;-67
2023/12/30 05:41:12;;;;;;;38.35;36.15;;;;;;;;;;5028722;28;20048;-67
2023/12/30 05:43:41;;;;;;;39.30;37.30;;;;;;;;;;5029710;28;20025;-67
2023/12/30 05:46:06;;;;;;;38.30;36.30;;;;;;;;;;5030909;28;20037;-67
2023/12/30 05:48:32;;;;;;;39.58;37.45;;;;;;;;;;5030066;28;20052;-67
2023/12/30 05:50:57;;;;;;;40.60;38.30;;;;;;;;;;5029561;28;20044;-68
2023/12/30 05:53:22;;;;;;;41.47;39.38;;;;;;;;;;5034619;28;20038;-67
2023/12/30 05:55:48;;;;;;;39.65;37.50;;;;;;;;;;5029999;28;20477;-67
2023/12/30 05:58:13;;;;;;;41.33;39.10;;;;;;;;;;5028736;28;20055;-67
2023/12/30 06:00:38;;;;;;;37.47;35.53;;;;;;;;;;5030329;28;20053;-67
2023/12/30 06:03:04;;;;;;;36.50;34.63;;;;;;;;;;5029081;28;20624;-67
2023/12/30 06:05:29;;;;;;;38.13;36.13;;;;;;;;;;5035904;28;20609;-67
2023/12/30 06:07:55;;;;;;;37.95;35.75;;;;;;;;;;5030334;28;20044;-67
2023/12/30 06:10:20;;;;;;;38.88;36.33;;;;;;;;;;5034077;28;20036;-67
2023/12/30 06:12:45;;;;;;;37.92;35.92;;;;;;;;;;5027611;28;20041;-67
2023/12/30 06:15:11;;;;;;;39.13;37.00;;;;;;;;;;5028867;28;20842;-67
2023/12/30 06:17:36;;;;;;;37.58;35.58;;;;;;;;;;5030021;28;20090;-67
2023/12/30 06:20:01;;;;;;;36.53;34.63;;;;;;;;;;5029010;28;20045;-67
2023/12/30 06:22:27;;;;;;;36.58;34.70;;;;;;;;;;5031095;28;20074;-67
2023/12/30 06:24:52;;;;;;;37.10;35.20;;;;;;;;;;5028170;28;20061;-67
2023/12/30 06:27:20;;;;;;;37.08;35.17;;;;;;;;;;5031045;28;20095;-67
2023/12/30 06:29:45;;;;;;;36.03;34.15;;;;;;;;;;5031685;28;20402;-67
2023/12/30 06:32:11;;;;;;;37.38;35.35;;;;;;;;;;5028119;28;20033;-67
2023/12/30 06:34:36;;;;;;;37.95;36.03;;;;;;;;;;5026354;28;20103;-67
2023/12/30 06:37:01;;;;;;;36.30;34.40;;;;;;;;;;5030288;28;20135;-66
2023/12/30 06:39:27;;;;;;;35.15;33.28;;;;;;;;;;5030164;28;20056;-66
2023/12/30 06:41:53;;;;;;;36.50;34.60;;;;;;;;;;5029514;28;20150;-66
2023/12/30 06:44:18;;;;;;;37.88;35.97;;;;;;;;;;5030977;28;20053;-67
2023/12/30 06:46:43;;;;;;;36.95;35.05;;;;;;;;;;5030222;28;20037;-68
2023/12/30 06:49:09;;;;;;;36.92;34.97;;;;;;;;;;5030102;28;20046;-68
2023/12/30 06:51:34;;;;;;;38.60;36.60;;;;;;;;;;5031431;28;20103;-67
2023/12/30 06:53:59;;;;;;;35.97;34.15;;;;;;;;;;5028009;28;20363;-67
2023/12/30 06:56:25;;;;;;;33.95;32.15;;;;;;;;;;5034366;28;20036;-67
2023/12/30 06:58:51;;;;;;;33.20;31.50;;;;;;;;;;5033138;28;20121;-66
2023/12/30 07:01:19;;;;;;;33.03;31.33;;;;;;;;;;5028928;28;20115;-67
2023/12/30 07:03:44;;;;;;;31.05;29.45;;;;;;;;;;5030961;28;20033;-66
2023/12/30 07:06:10;;;;;;;32.63;30.92;;;;;;;;;;5028638;28;20427;-67
2023/12/30 07:08:35;;;;;;;34.50;32.70;;;;;;;;;;5033589;28;20117;-65
2023/12/30 07:11:01;;;;;;;31.58;29.95;;;;;;;;;;5026361;28;20038;-65
2023/12/30 07:13:26;;;;;;;31.88;30.10;;;;;;;;;;5034243;28;20061;-59
2023/12/30 07:15:52;;;;;;;32.38;30.20;;;;;;;;;;5028815;28;20132;-59
2023/12/30 07:18:18;;;;;;;31.77;30.08;;;;;;;;;;5029336;28;20594;-58
2023/12/30 07:20:44;;;;;;;32.13;30.42;;;;;;;;;;5028453;28;20045;-59
2023/12/30 07:23:09;;;;;;;31.48;29.83;;;;;;;;;;5030097;28;20106;-59
2023/12/30 07:25:34;;;;;;;31.55;29.92;;;;;;;;;;5028984;28;20041;-59
2023/12/30 07:28:00;;;;;;;32.08;30.42;;;;;;;;;;5027076;28;20037;-59
2023/12/30 07:30:25;;;;;;;29.65;28.13;;;;;;;;;;5029791;28;20502;-59
2023/12/30 07:32:51;;;;;;;31.65;30.05;;;;;;;;;;5029715;28;20149;-59
2023/12/30 07:35:16;;;;;;;32.22;30.52;;;;;;;;;;5028786;28;20033;-59
2023/12/30 07:37:43;;;;;;;32.55;30.88;;;;;;;;;;5029444;28;20036;-60
2023/12/30 07:40:09;;;;;;;30.15;28.55;;;;;;;;;;5033254;28;20076;-59
2023/12/30 07:42:35;;;;;;;33.08;31.27;;;;;;;;;;5026506;28;20029;-59
2023/12/30 07:45:01;;;;;;;33.58;31.88;;;;;;;;;;5025746;28;20034;-59
2023/12/30 07:47:26;;;;;;;32.38;30.67;;;;;;;;;;5031088;28;20047;-59
2023/12/30 07:49:52;;;;;;;31.38;29.73;;;;;;;;;;5032461;28;20036;-59
2023/12/30 07:52:18;;;;;;;31.77;30.13;;;;;;;;;;5030162;28;20033;-60
2023/12/30 07:54:44;;;;;;;32.08;30.40;;;;;;;;;;5030606;28;20037;-59
2023/12/30 07:57:09;;;;;;;32.97;31.27;;;;;;;;;;5027509;28;20047;-58
2023/12/30 07:59:35;;;;;;;33.97;32.25;;;;;;;;;;5028252;28;20046;-59
2023/12/30 08:02:00;;;;;;;36.72;34.83;;;;;;;;;;5039712;28;20064;-59
2023/12/30 08:04:25;;;;;;;33.53;31.63;;;;;;;;;;5028808;28;20021;-58
2023/12/30 08:06:51;;;;;;;34.10;32.35;;;;;;;;;;5028139;28;20095;-58
2023/12/30 08:09:17;;;;;;;34.00;32.22;;;;;;;;;;5027174;28;20399;-60
2023/12/30 08:11:42;;;;;;;32.88;31.17;;;;;;;;;;5026937;28;20079;-60
2023/12/30 08:14:08;;;;;;;34.53;32.72;;;;;;;;;;5029612;28;20040;-58
2023/12/30 08:16:36;;;;;;;33.03;31.33;;;;;;;;;;5029055;28;20022;-58
2023/12/30 08:19:05;;;;;;;35.63;33.42;;;;;;;;;;5029782;28;20059;-58
2023/12/30 08:21:31;;;;;;;35.75;33.90;;;;;;;;;;5028438;28;20037;-58
2023/12/30 08:23:58;;;;;;;37.25;35.35;;;;;;;;;;5031411;28;20091;-58
2023/12/30 08:26:24;;;;;;;38.83;35.80;;;;;;;;;;5029983;28;20036;-58
2023/12/30 08:28:50;;;;;;;36.70;34.72;;;;;;;;;;5027086;28;20148;-58
2023/12/30 08:31:16;;;;;;;39.15;37.05;;;;;;;;;;5025935;28;21038;-57
2023/12/30 08:33:41;;;;;;;40.78;38.63;;;;;;;;;;5027969;28;20458;-59
2023/12/30 08:36:06;;;;;;;37.85;35.80;;;;;;;;;;5027051;28;20061;-58
2023/12/30 08:38:32;;;;;;;38.63;36.63;;;;;;;;;;5033775;28;20133;-57
2023/12/30 08:40:58;;;;;;;40.35;38.25;;;;;;;;;;5030542;28;20064;-58
2023/12/30 08:43:24;;;;;;;41.35;39.25;;;;;;;;;;5033570;28;20115;-58
2023/12/30 08:45:49;;;;;;;40.20;38.13;;;;;;;;;;5030243;28;20029;-58
2023/12/30 08:48:15;;;;;;;40.15;38.05;;;;;;;;;;5032670;28;20103;-58
2023/12/30 08:50:40;;;;;;;39.88;37.78;;;;;;;;;;5029553;28;20112;-58
2023/12/30 08:53:06;;;;;;;42.05;39.90;;;;;;;;;;5035146;28;20071;-65
2023/12/30 08:55:31;;;;;;;40.75;38.58;;;;;;;;;;5037869;28;20025;-66
2023/12/30 08:57:56;;;;;;;41.40;39.30;;;;;;;;;;5032565;28;20091;-66
2023/12/30 09:00:22;;;;;;;38.10;36.08;;;;;;;;;;5031822;28;20095;-67
2023/12/30 09:02:48;;;;;;;37.10;35.20;;;;;;;;;;5032957;28;20040;-67
2023/12/30 09:05:18;;;;;;;37.63;35.42;;;;;;;;;;5027737;28;20033;-67
2023/12/30 09:07:44;;;;;;;37.40;35.47;;;;;;;;;;5028725;28;20355;-67
2023/12/30 09:10:10;;;;;;;36.28;34.38;;;;;;;;;;5029134;28;20284;-66
2023/12/30 09:12:35;;;;;;;39.80;37.80;;;;;;;;;;5032658;28;20450;-67
2023/12/30 09:15:00;;;;;;;38.70;36.65;;;;;;;;;;5031959;28;20419;-65
2023/12/30 09:17:26;;;;;;;38.90;36.90;;;;;;;;;;5035777;28;20839;-68
2023/12/30 09:19:51;;;;;;;37.08;35.17;;;;;;;;;;5031026;28;20792;-68
2023/12/30 09:22:16;;;;;;;38.42;36.42;;;;;;;;;;5032939;28;20029;-68
2023/12/30 09:24:42;;;;;;;36.28;34.25;;;;;;;;;;5033440;28;20055;-67
2023/12/30 09:27:08;;;;;;;35.67;33.78;;;;;;;;;;5031796;28;20030;-68
2023/12/30 09:29:34;;;;;;;33.47;31.70;;;;;;;;;;5032362;28;20124;-70
2023/12/30 09:31:59;;;;;;;34.83;33.00;;;;;;;;;;5029956;28;20041;-66
2023/12/30 09:34:24;;;;;;;34.55;32.75;;;;;;;;;;5034735;28;20128;-66
2023/12/30 09:36:50;;;;;;;30.75;29.15;;;;;;;;;;5028996;28;20463;-65
2023/12/30 09:39:15;;;;;;;32.13;30.45;;;;;;;;;;5031301;28;20097;-63
2023/12/30 09:41:40;;;;;;;32.30;30.60;;;;;;;;;;5015065;28;20451;-67
2023/12/30 09:44:07;;;;;;;31.98;30.13;;;;;;;;;;5032061;28;20022;-67
2023/12/30 09:46:35;;;;;;;31.63;30.02;;;;;;;;;;5033365;28;20138;-64
2023/12/30 09:49:03;;;;;;;33.47;31.58;;;;;;;;;;5034284;28;20037;-67
2023/12/30 09:51:29;;;;;;;32.15;30.45;;;;;;;;;;5031375;28;20123;-65
2023/12/30 09:53:55;;;;;;;30.83;29.23;;;;;;;;;;5034213;28;20041;-65
2023/12/30 09:56:21;;;;;;;33.72;31.95;;;;;;;;;;5030724;28;20037;-66
2023/12/30 09:58:47;;;;;;;31.10;29.40;;;;;;;;;;5029852;28;20128;-66
2023/12/30 10:01:13;;;;;;;29.88;28.27;;;;;;;;;;5031250;28;20098;-65
2023/12/30 10:03:39;;;;;;;29.67;28.13;;;;;;;;;;5030275;28;20538;-65
2023/12/30 10:06:06;;;;;;;28.90;27.40;;;;;;;;;;5029250;28;20511;-66
2023/12/30 10:08:32;;;;;;;27.42;26.02;;;;;;;;;;5031119;28;20056;-65
2023/12/30 10:10:57;;;;;;;26.52;25.13;;;;;;;;;;5028891;28;20037;-65
2023/12/30 10:13:26;;;;;;;27.20;25.77;;;;;;;;;;5029327;28;20088;-65
2023/12/30 10:15:53;;;;;;;26.35;24.95;;;;;;;;;;5032549;28;20486;-66
2023/12/30 10:18:19;;;;;;;23.60;22.30;;;;;;;;;;5027759;28;20029;-65
2023/12/30 10:20:46;;;;;;;24.25;22.95;;;;;;;;;;5032342;28;20084;-65
2023/12/30 10:23:12;;;;;;;24.60;23.25;;;;;;;;;;5039779;28;20068;-65
2023/12/30 10:25:38;;;;;;;23.50;22.20;;;;;;;;;;5030286;28;20052;-65
2023/12/30 10:28:04;;;;;;;24.25;22.90;;;;;;;;;;5030988;28;20037;-65
2023/12/30 10:30:30;;;;;;;26.40;24.80;;;;;;;;;;5028242;28;20635;-65
2023/12/30 10:33:12;;;;;;;23.55;22.25;;;;;;;;;;5029189;28;20472;-65
2023/12/30 10:35:41;;;;;;;25.35;23.95;;;;;;;;;;5031938;28;20052;-65
2023/12/30 10:38:08;;;;;;;23.08;21.88;;;;;;;;;;5007905;28;20041;-65
2023/12/30 10:40:33;;;;;;;24.75;23.45;;;;;;;;;;5029742;28;20395;-65
2023/12/30 10:43:00;;;;;;;25.00;23.60;;;;;;;;;;5031898;28;20021;-65
2023/12/30 10:45:26;;;;;;;23.58;22.27;;;;;;;;;;5032010;28;20271;-65
2023/12/30 10:47:54;;;;;;;25.30;23.55;;;;;;;;;;5032525;28;20211;-65
2023/12/30 10:50:22;;;;;;;25.30;23.90;;;;;;;;;;5030665;28;20335;-65
2023/12/30 10:52:59;;;;;;;24.20;22.90;;;;;;;;;;5027469;28;20053;-65
2023/12/30 10:55:29;;;;;;;24.40;23.02;;;;;;;;;;5028702;28;20116;-65
2023/12/30 10:58:02;;;;;;;22.90;21.70;;;;;;;;;;5025855;28;20510;-65
2023/12/30 11:00:28;;;;;;;23.75;22.35;;;;;;;;;;5027011;28;20041;-66
2023/12/30 11:02:54;;;;;;;22.73;21.52;;;;;;;;;;5028400;28;20025;-61
2023/12/30 11:05:49;;;;;;;24.40;23.10;;;;;;;;;;5026409;28;20099;-56
2023/12/30 11:08:17;;;;;;;25.40;23.67;;;;;;;;;;5024526;28;20053;-57
2023/12/30 11:10:43;;;;;;;22.55;21.25;;;;;;;;;;5027752;28;20471;-57
2023/12/30 11:13:08;;;;;;;23.10;21.67;;;;;;;;;;5028876;28;20049;-57
2023/12/30 11:15:34;;;;;;;23.90;22.50;;;;;;;;;;5030587;28;20541;-57
2023/12/30 11:18:01;;;;;;;22.63;21.42;;;;;;;;;;5028531;28;20053;-56
2023/12/30 11:20:32;;;;;;;23.23;22.02;;;;;;;;;;5022536;28;20045;-58
2023/12/30 11:23:02;;;;;;;22.20;21.00;;;;;;;;;;5028847;28;20036;-58
2023/12/30 11:25:36;;;;;;;24.25;22.65;;;;;;;;;;5031158;28;20446;-57
2023/12/30 11:28:21;;;;;;;24.20;22.70;;;;;;;;;;5022386;28;20040;-57
2023/12/30 11:30:56;;;;;;;23.75;22.48;;;;;;;;;;5030990;28;20090;-54
2023/12/30 11:33:21;;;;;;;23.23;22.02;;;;;;;;;;5030807;28;20098;-57
2023/12/30 11:35:51;;;;;;;22.98;21.67;;;;;;;;;;5030972;28;20541;-56
2023/12/30 11:38:17;;;;;;;23.75;22.45;;;;;;;;;;5030515;28;20045;-58
2023/12/30 11:40:49;;;;;;;23.90;22.60;;;;;;;;;;5027216;28;20045;-57
2023/12/30 11:43:14;;;;;;;22.52;21.33;;;;;;;;;;5025187;28;20082;-58
2023/12/30 11:45:39;;;;;;;24.13;22.83;;;;;;;;;;5029471;28;20060;-54
2023/12/30 11:48:05;;;;;;;23.60;22.30;;;;;;;;;;5025097;28;20041;-56
2023/12/30 11:50:30;;;;;;;23.92;22.63;;;;;;;;;;5029669;28;20041;-57
2023/12/30 11:53:01;;;;;;;22.45;21.25;;;;;;;;;;5030430;28;20067;-58
2023/12/30 11:55:26;;;;;;;24.25;22.75;;;;;;;;;;5023639;28;20473;-58
2023/12/30 11:57:52;;;;;;;22.75;21.55;;;;;;;;;;5027833;28;20037;-58
2023/12/30 12:00:18;;;;;;;22.77;21.58;;;;;;;;;;5027935;28;20061;-58
2023/12/30 12:02:44;;;;;;;24.98;23.65;;;;;;;;;;5026728;28;20460;-58
2023/12/30 12:05:09;;;;;;;22.85;21.65;;;;;;;;;;5028077;28;20131;-57
2023/12/30 12:07:34;;;;;;;25.50;24.10;;;;;;;;;;5031149;28;20355;-58
2023/12/30 12:10:00;;;;;;;24.20;22.90;;;;;;;;;;5027255;28;20030;-57
2023/12/30 12:12:37;;;;;;;24.90;23.48;;;;;;;;;;5024335;28;20033;-58
2023/12/30 12:15:04;;;;;;;25.10;23.75;;;;;;;;;;5028589;28;20045;-57
2023/12/30 12:17:30;;;;;;;24.42;23.13;;;;;;;;;;5027477;28;20029;-55
2023/12/30 12:19:56;;;;;;;24.52;23.23;;;;;;;;;;5026802;28;20044;-58
2023/12/30 12:22:22;;;;;;;24.05;22.65;;;;;;;;;;5023653;28;20082;-58
2023/12/30 12:24:47;;;;;;;23.80;22.50;;;;;;;;;;5031137;28;20044;-56
2023/12/30 12:27:21;;;;;;;25.95;24.45;;;;;;;;;;5026687;28;20065;-66
2023/12/30 12:29:49;;;;;;;23.75;22.45;;;;;;;;;;5029236;28;20387;-66
2023/12/30 12:32:20;;;;;;;24.85;23.52;;;;;;;;;;5024383;28;20407;-66
2023/12/30 12:34:46;;;;;;;24.37;23.03;;;;;;;;;;5028847;28;20528;-66
2023/12/30 12:37:14;;;;;;;25.67;24.27;;;;;;;;;;5026186;28;20291;-66
2023/12/30 12:39:39;;;;;;;24.40;23.10;;;;;;;;;;5025443;28;20041;-66
2023/12/30 12:42:05;;;;;;;25.25;23.63;;;;;;;;;;5026310;28;20041;-66
2023/12/30 12:44:30;;;;;;;25.35;24.05;;;;;;;;;;5027407;28;20036;-66
2023/12/30 12:46:56;;;;;;;25.25;23.95;;;;;;;;;;5030625;28;20459;-66
2023/12/30 12:49:22;;;;;;;24.77;23.48;;;;;;;;;;5027276;28;20037;-66
2023/12/30 12:51:49;;;;;;;24.27;22.90;;;;;;;;;;5026552;28;20066;-66
2023/12/30 12:54:15;;;;;;;25.15;23.73;;;;;;;;;;5026101;28;20399;-66
2023/12/30 12:56:42;;;;;;;25.17;23.88;;;;;;;;;;5029070;28;20038;-66
2023/12/30 12:59:08;;;;;;;25.55;23.67;;;;;;;;;;5031158;28;20124;-65
2023/12/30 13:01:34;;;;;;;24.10;22.80;;;;;;;;;;5022978;28;20022;-65
2023/12/30 13:04:00;;;;;;;25.35;23.77;;;;;;;;;;5030383;28;20499;-59
2023/12/30 13:06:26;;;;;;;24.35;23.05;;;;;;;;;;5028728;28;20112;-65
2023/12/30 13:08:53;;;;;;;24.38;23.08;;;;;;;;;;5029631;28;20076;-66
2023/12/30 13:11:27;;;;;;;24.33;23.02;;;;;;;;;;5027124;28;20040;-66
2023/12/30 13:13:53;;;;;;;24.50;23.10;;;;;;;;;;5028799;28;20348;-66
2023/12/30 13:16:20;;;;;;;23.85;22.50;;;;;;;;;;5026945;28;20516;-67
2023/12/30 13:18:45;;;;;;;23.92;22.63;;;;;;;;;;5024280;28;20041;-66
2023/12/30 13:21:11;;;;;;;24.45;22.95;;;;;;;;;;5024839;28;20041;-66
2023/12/30 13:23:36;;;;;;;24.70;23.40;;;;;;;;;;5029084;28;20454;-66
2023/12/30 13:26:02;;;;;;;24.65;23.35;;;;;;;;;;5029333;28;20518;-65
2023/12/30 13:28:27;;;;;;;23.88;22.58;;;;;;;;;;5029694;28;20797;-56
2023/12/30 13:30:52;;;;;;;24.52;23.17;;;;;;;;;;5027306;28;20052;-57
2023/12/30 13:33:20;;;;;;;24.60;23.10;;;;;;;;;;5034535;28;20116;-57
2023/12/30 13:35:47;;;;;;;23.27;21.80;;;;;;;;;;5035269;28;20064;-58
2023/12/30 13:38:14;;;;;;;24.13;22.83;;;;;;;;;;5031185;28;20043;-56
2023/12/30 13:40:40;;;;;;;23.42;22.08;;;;;;;;;;5028351;28;20033;-56
2023/12/30 13:43:12;;;;;;;24.63;23.33;;;;;;;;;;5032747;28;20033;-58
2023/12/30 13:45:43;;;;;;;21.42;20.23;;;;;;;;;;5029245;28;20026;-57
2023/12/30 13:50:55;;;;;;;23.23;21.83;;;;;;;;;;5025428;28;20031;-66
2023/12/30 13:53:23;;;;;;;22.08;20.88;;;;;;;;;;5029335;28;20653;-66
2023/12/30 13:55:49;;;;;;;22.45;21.25;;;;;;;;;;5024425;28;20022;-66
2023/12/30 13:58:14;;;;;;;23.42;22.13;;;;;;;;;;5027652;28;20048;-66
2023/12/30 14:00:42;;;;;;;21.60;20.40;;;;;;;;;;5028345;28;20022;-66
2023/12/30 14:03:08;;;;;;;22.70;21.38;;;;;;;;;;5029804;28;20036;-66
2023/12/30 14:05:39;;;;;;;22.08;20.67;;;;;;;;;;5032344;28;20099;-66
2023/12/30 14:08:17;;;;;;;22.80;21.30;;;;;;;;;;5027012;28;20082;-65
2023/12/30 14:10:47;;;;;;;22.17;20.98;;;;;;;;;;5027785;28;20498;-65
2023/12/30 14:13:15;;;;;;;21.33;20.20;;;;;;;;;;5026125;28;20038;-65